createdAt,value
2024-02-13T00:26:01.416Z,2.6
2024-02-13T00:36:03.113Z,2.5
2024-02-13T00:46:04.990Z,2.4
2024-02-13T01:06:07.997Z,2.2
2024-02-13T01:16:09.409Z,2.1
2024-02-13T01:36:12.700Z,2.2
2024-02-13T02:46:23.696Z,2
2024-02-13T03:16:28.574Z,2.1
2024-02-13T03:29:17.960Z,2.3
2024-02-13T03:46:51.721Z,2.4
2024-02-13T04:36:59.181Z,2.6
2024-02-13T05:07:04.170Z,2.7
2024-02-13T05:27:07.349Z,2.7
2024-02-13T05:47:11.154Z,2.7
2024-02-13T06:27:16.666Z,2.6
2024-02-13T06:37:18.915Z,2.7
2024-02-13T06:57:21.215Z,2.8
2024-02-13T07:17:23.799Z,2.8
2024-02-13T07:57:31.165Z,3.5
2024-02-13T08:17:34.706Z,3.6
2024-02-13T08:47:39.935Z,4.7
2024-02-13T08:57:41.552Z,5
2024-02-13T09:47:49.158Z,5.7
2024-02-13T10:27:55.899Z,6.6
2024-02-13T10:47:59.280Z,6.7
2024-02-13T11:08:01.924Z,7.4
2024-02-13T11:28:05.535Z,7.3
2024-02-13T11:38:07.792Z,7.6
2024-02-13T11:48:08.768Z,7.9
2024-02-13T11:58:10.234Z,7.7
2024-02-13T12:08:12.084Z,7.7
2024-02-13T12:18:13.690Z,7.8
2024-02-13T12:48:18.161Z,8.2
2024-02-13T12:58:19.884Z,8.5
2024-02-13T13:08:21.110Z,8.3
2024-02-13T13:38:25.503Z,8.5
2024-02-13T13:48:27.608Z,9.3
2024-02-13T14:38:35.633Z,9
2024-02-13T15:18:41.360Z,8.5
2024-02-13T15:28:42.581Z,8.4
2024-02-13T15:38:44.056Z,8.3
2024-02-13T15:48:45.739Z,8.3
2024-02-13T15:58:46.987Z,8.2
2024-02-13T16:18:50.053Z,8.1
2024-02-13T16:48:55.368Z,7.9
2024-02-13T16:58:57.000Z,7.9
2024-02-13T17:19:00.347Z,7.9
2024-02-13T17:29:01.729Z,7.9
2024-02-13T17:49:04.324Z,7.9
2024-02-13T18:09:07.164Z,7.8
2024-02-13T18:29:10.793Z,7.7
2024-02-13T18:39:12.587Z,7.6
2024-02-13T18:49:14.164Z,7.5
2024-02-13T18:59:15.480Z,7.5
2024-02-13T19:09:17.655Z,7.5
2024-02-13T19:19:18.498Z,7.5
2024-02-13T19:39:21.545Z,7.2
2024-02-13T20:39:31.054Z,6.9
2024-02-13T21:09:35.786Z,6.8
2024-02-13T21:19:37.162Z,6.8
2024-02-13T21:39:39.228Z,6.9
2024-02-13T21:49:41.038Z,6.9
2024-02-13T22:49:49.634Z,7.1
2024-02-13T22:59:51.081Z,7.2
2024-02-13T23:09:52.302Z,7.4
2024-02-13T23:19:53.475Z,7.6
2024-02-13T23:29:55.260Z,7.6
2024-02-13T23:39:56.847Z,7.5
2024-02-13T23:49:58.415Z,7.6
